sensor_id;sensor_type;location;lat;lon;timestamp;P1;durP1;ratioP1;P2;durP2;ratioP2
76995;SDS011;65929;49.062;10.338;2023-08-31T00:00:10;2.33;;;1.73;;
76995;SDS011;65929;49.062;10.338;2023-08-31T00:01:12;2.42;;;1.65;;
76995;SDS011;65929;49.062;10.338;2023-08-31T00:02:14;2.95;;;1.92;;
76995;SDS011;65929;49.062;10.338;2023-08-31T00:03:16;3.80;;;2.03;;
76995;SDS011;65929;49.062;10.338;2023-08-31T00:04:17;2.67;;;1.85;;
76995;SDS011;65929;49.062;10.338;2023-08-31T00:05:18;2.17;;;1.90;;
76995;SDS011;65929;49.062;10.338;2023-08-31T00:06:19;4.25;;;2.17;;
76995;SDS011;65929;49.062;10.338;2023-08-31T00:07:21;3.92;;;1.98;;
76995;SDS011;65929;49.062;10.338;2023-08-31T00:08:22;2.65;;;1.85;;
76995;SDS011;65929;49.062;10.338;2023-08-31T00:09:24;2.40;;;1.90;;
76995;SDS011;65929;49.062;10.338;2023-08-31T00:10:25;2.83;;;2.00;;
76995;SDS011;65929;49.062;10.338;2023-08-31T00:11:26;2.85;;;2.03;;
76995;SDS011;65929;49.062;10.338;2023-08-31T00:12:27;9.52;;;2.20;;
76995;SDS011;65929;49.062;10.338;2023-08-31T00:13:28;3.08;;;2.00;;
76995;SDS011;65929;49.062;10.338;2023-08-31T00:14:40;2.13;;;1.60;;
76995;SDS011;65929;49.062;10.338;2023-08-31T00:15:40;2.00;;;1.77;;
76995;SDS011;65929;49.062;10.338;2023-08-31T00:16:41;3.80;;;2.08;;
76995;SDS011;65929;49.062;10.338;2023-08-31T00:17:42;3.17;;;2.10;;
76995;SDS011;65929;49.062;10.338;2023-08-31T00:18:45;3.42;;;2.08;;
76995;SDS011;65929;49.062;10.338;2023-08-31T00:19:46;4.22;;;1.95;;
76995;SDS011;65929;49.062;10.338;2023-08-31T00:20:46;3.38;;;2.03;;
76995;SDS011;65929;49.062;10.338;2023-08-31T00:21:47;2.83;;;1.80;;
76995;SDS011;65929;49.062;10.338;2023-08-31T00:22:48;5.20;;;1.90;;
76995;SDS011;65929;49.062;10.338;2023-08-31T00:23:49;2.15;;;1.77;;
76995;SDS011;65929;49.062;10.338;2023-08-31T00:24:50;3.17;;;1.80;;
76995;SDS011;65929;49.062;10.338;2023-08-31T00:25:52;2.80;;;1.80;;
76995;SDS011;65929;49.062;10.338;2023-08-31T00:26:53;2.80;;;1.90;;
76995;SDS011;65929;49.062;10.338;2023-08-31T00:27:55;2.13;;;1.73;;
76995;SDS011;65929;49.062;10.338;2023-08-31T00:28:57;3.85;;;2.08;;
76995;SDS011;65929;49.062;10.338;2023-08-31T00:29:58;3.03;;;1.90;;
76995;SDS011;65929;49.062;10.338;2023-08-31T00:31:00;2.45;;;1.83;;
76995;SDS011;65929;49.062;10.338;2023-08-31T00:32:04;2.95;;;1.75;;
76995;SDS011;65929;49.062;10.338;2023-08-31T00:33:05;2.75;;;1.95;;
76995;SDS011;65929;49.062;10.338;2023-08-31T00:34:07;3.85;;;2.15;;
76995;SDS011;65929;49.062;10.338;2023-08-31T00:35:11;2.67;;;1.83;;
76995;SDS011;65929;49.062;10.338;2023-08-31T00:36:12;3.92;;;2.40;;
76995;SDS011;65929;49.062;10.338;2023-08-31T00:37:13;2.40;;;1.85;;
76995;SDS011;65929;49.062;10.338;2023-08-31T00:38:14;3.25;;;1.98;;
76995;SDS011;65929;49.062;10.338;2023-08-31T00:39:15;3.97;;;1.95;;
76995;SDS011;65929;49.062;10.338;2023-08-31T00:40:17;3.22;;;1.77;;
76995;SDS011;65929;49.062;10.338;2023-08-31T00:41:18;3.65;;;1.92;;
76995;SDS011;65929;49.062;10.338;2023-08-31T00:42:20;3.75;;;2.13;;
76995;SDS011;65929;49.062;10.338;2023-08-31T00:43:21;4.03;;;2.33;;
76995;SDS011;65929;49.062;10.338;2023-08-31T00:44:22;2.90;;;2.05;;
76995;SDS011;65929;49.062;10.338;2023-08-31T00:45:24;3.60;;;1.80;;
76995;SDS011;65929;49.062;10.338;2023-08-31T00:46:25;3.25;;;2.22;;
76995;SDS011;65929;49.062;10.338;2023-08-31T00:47:27;2.70;;;2.15;;
76995;SDS011;65929;49.062;10.338;2023-08-31T00:48:28;3.55;;;2.25;;
76995;SDS011;65929;49.062;10.338;2023-08-31T00:49:31;3.75;;;2.10;;
76995;SDS011;65929;49.062;10.338;2023-08-31T00:50:31;2.67;;;2.08;;
76995;SDS011;65929;49.062;10.338;2023-08-31T00:51:33;2.85;;;1.77;;
76995;SDS011;65929;49.062;10.338;2023-08-31T00:52:34;5.28;;;2.33;;
76995;SDS011;65929;49.062;10.338;2023-08-31T00:53:35;2.85;;;1.90;;
76995;SDS011;65929;49.062;10.338;2023-08-31T00:54:36;3.15;;;2.10;;
76995;SDS011;65929;49.062;10.338;2023-08-31T00:55:37;2.92;;;1.90;;
76995;SDS011;65929;49.062;10.338;2023-08-31T00:56:41;2.30;;;1.90;;
76995;SDS011;65929;49.062;10.338;2023-08-31T00:57:42;2.70;;;2.08;;
76995;SDS011;65929;49.062;10.338;2023-08-31T00:58:43;3.35;;;2.28;;
76995;SDS011;65929;49.062;10.338;2023-08-31T00:59:44;4.53;;;2.10;;
76995;SDS011;65929;49.062;10.338;2023-08-31T01:00:46;2.28;;;1.88;;
76995;SDS011;65929;49.062;10.338;2023-08-31T01:01:57;3.50;;;2.00;;
76995;SDS011;65929;49.062;10.338;2023-08-31T01:03:05;3.00;;;1.98;;
76995;SDS011;65929;49.062;10.338;2023-08-31T01:04:17;3.10;;;2.05;;
76995;SDS011;65929;49.062;10.338;2023-08-31T01:05:28;2.55;;;1.80;;
76995;SDS011;65929;49.062;10.338;2023-08-31T01:06:36;3.50;;;2.30;;
76995;SDS011;65929;49.062;10.338;2023-08-31T01:07:48;3.55;;;1.88;;
76995;SDS011;65929;49.062;10.338;2023-08-31T01:08:57;2.15;;;1.77;;
76995;SDS011;65929;49.062;10.338;2023-08-31T01:10:05;3.63;;;1.83;;
76995;SDS011;65929;49.062;10.338;2023-08-31T01:11:12;2.15;;;1.70;;
76995;SDS011;65929;49.062;10.338;2023-08-31T01:12:22;2.85;;;1.67;;
76995;SDS011;65929;49.062;10.338;2023-08-31T01:13:30;2.28;;;1.77;;
76995;SDS011;65929;49.062;10.338;2023-08-31T01:14:33;3.78;;;1.90;;
76995;SDS011;65929;49.062;10.338;2023-08-31T01:15:39;3.20;;;1.95;;
76995;SDS011;65929;49.062;10.338;2023-08-31T01:16:45;3.55;;;1.83;;
76995;SDS011;65929;49.062;10.338;2023-08-31T01:17:49;2.30;;;1.88;;
76995;SDS011;65929;49.062;10.338;2023-08-31T01:18:53;2.95;;;2.05;;
76995;SDS011;65929;49.062;10.338;2023-08-31T01:19:55;4.80;;;2.17;;
76995;SDS011;65929;49.062;10.338;2023-08-31T01:21:02;4.70;;;2.08;;
76995;SDS011;65929;49.062;10.338;2023-08-31T01:22:13;7.30;;;2.22;;
76995;SDS011;65929;49.062;10.338;2023-08-31T01:23:18;4.35;;;1.80;;
76995;SDS011;65929;49.062;10.338;2023-08-31T01:24:21;3.58;;;1.73;;
76995;SDS011;65929;49.062;10.338;2023-08-31T01:25:23;2.50;;;1.90;;
76995;SDS011;65929;49.062;10.338;2023-08-31T01:26:25;4.15;;;1.83;;
76995;SDS011;65929;49.062;10.338;2023-08-31T01:27:26;3.22;;;2.35;;
76995;SDS011;65929;49.062;10.338;2023-08-31T01:28:27;4.03;;;2.40;;
76995;SDS011;65929;49.062;10.338;2023-08-31T01:29:29;2.00;;;1.75;;
76995;SDS011;65929;49.062;10.338;2023-08-31T01:30:30;2.42;;;2.00;;
76995;SDS011;65929;49.062;10.338;2023-08-31T01:31:31;3.05;;;2.05;;
76995;SDS011;65929;49.062;10.338;2023-08-31T01:32:32;3.22;;;2.00;;
76995;SDS011;65929;49.062;10.338;2023-08-31T01:33:33;2.22;;;1.75;;
76995;SDS011;65929;49.062;10.338;2023-08-31T01:34:34;3.15;;;1.98;;
76995;SDS011;65929;49.062;10.338;2023-08-31T01:35:38;2.80;;;2.28;;
76995;SDS011;65929;49.062;10.338;2023-08-31T01:36:43;4.00;;;2.20;;
76995;SDS011;65929;49.062;10.338;2023-08-31T01:37:50;3.35;;;1.83;;
76995;SDS011;65929;49.062;10.338;2023-08-31T01:38:57;5.90;;;2.53;;
76995;SDS011;65929;49.062;10.338;2023-08-31T01:40:06;2.20;;;1.88;;
76995;SDS011;65929;49.062;10.338;2023-08-31T01:41:13;3.95;;;1.90;;
76995;SDS011;65929;49.062;10.338;2023-08-31T01:42:17;2.80;;;1.70;;
76995;SDS011;65929;49.062;10.338;2023-08-31T01:43:19;2.65;;;1.88;;
76995;SDS011;65929;49.062;10.338;2023-08-31T01:44:22;2.85;;;1.75;;
76995;SDS011;65929;49.062;10.338;2023-08-31T01:45:24;3.13;;;2.08;;
76995;SDS011;65929;49.062;10.338;2023-08-31T01:46:26;2.58;;;2.10;;
76995;SDS011;65929;49.062;10.338;2023-08-31T01:47:27;2.45;;;2.00;;
76995;SDS011;65929;49.062;10.338;2023-08-31T01:48:28;4.68;;;2.60;;
76995;SDS011;65929;49.062;10.338;2023-08-31T01:49:35;3.33;;;1.92;;
76995;SDS011;65929;49.062;10.338;2023-08-31T01:50:36;3.20;;;2.20;;
76995;SDS011;65929;49.062;10.338;2023-08-31T01:51:37;3.22;;;2.05;;
76995;SDS011;65929;49.062;10.338;2023-08-31T01:52:38;3.88;;;2.03;;
76995;SDS011;65929;49.062;10.338;2023-08-31T01:53:39;4.20;;;2.20;;
76995;SDS011;65929;49.062;10.338;2023-08-31T01:54:40;4.00;;;2.50;;
76995;SDS011;65929;49.062;10.338;2023-08-31T01:55:42;6.07;;;3.10;;
76995;SDS011;65929;49.062;10.338;2023-08-31T01:56:43;4.53;;;2.50;;
76995;SDS011;65929;49.062;10.338;2023-08-31T01:57:43;4.85;;;3.13;;
76995;SDS011;65929;49.062;10.338;2023-08-31T01:58:45;3.70;;;2.80;;
76995;SDS011;65929;49.062;10.338;2023-08-31T01:59:45;4.30;;;3.40;;
76995;SDS011;65929;49.062;10.338;2023-08-31T02:00:46;4.65;;;3.33;;
76995;SDS011;65929;49.062;10.338;2023-08-31T02:01:47;5.65;;;3.10;;
76995;SDS011;65929;49.062;10.338;2023-08-31T02:02:48;6.30;;;3.05;;
76995;SDS011;65929;49.062;10.338;2023-08-31T02:03:49;5.30;;;3.13;;
76995;SDS011;65929;49.062;10.338;2023-08-31T02:04:50;5.50;;;3.15;;
76995;SDS011;65929;49.062;10.338;2023-08-31T02:05:52;5.18;;;3.03;;
76995;SDS011;65929;49.062;10.338;2023-08-31T02:06:52;4.35;;;3.15;;
76995;SDS011;65929;49.062;10.338;2023-08-31T02:07:53;5.80;;;3.50;;
76995;SDS011;65929;49.062;10.338;2023-08-31T02:08:54;4.00;;;3.40;;
76995;SDS011;65929;49.062;10.338;2023-08-31T02:09:55;4.78;;;2.97;;
76995;SDS011;65929;49.062;10.338;2023-08-31T02:10:57;4.80;;;3.40;;
76995;SDS011;65929;49.062;10.338;2023-08-31T02:11:58;6.20;;;3.13;;
76995;SDS011;65929;49.062;10.338;2023-08-31T02:12:59;4.75;;;3.13;;
76995;SDS011;65929;49.062;10.338;2023-08-31T02:14:00;3.95;;;3.25;;
76995;SDS011;65929;49.062;10.338;2023-08-31T02:15:01;4.45;;;3.15;;
76995;SDS011;65929;49.062;10.338;2023-08-31T02:16:02;4.57;;;3.10;;
76995;SDS011;65929;49.062;10.338;2023-08-31T02:17:03;6.25;;;3.65;;
76995;SDS011;65929;49.062;10.338;2023-08-31T02:18:04;5.75;;;3.45;;
76995;SDS011;65929;49.062;10.338;2023-08-31T02:19:05;5.32;;;3.20;;
76995;SDS011;65929;49.062;10.338;2023-08-31T02:20:06;5.20;;;3.78;;
76995;SDS011;65929;49.062;10.338;2023-08-31T02:21:08;4.72;;;3.40;;
76995;SDS011;65929;49.062;10.338;2023-08-31T02:22:09;5.22;;;3.35;;
76995;SDS011;65929;49.062;10.338;2023-08-31T02:23:10;5.78;;;3.40;;
76995;SDS011;65929;49.062;10.338;2023-08-31T02:24:12;4.53;;;3.42;;
76995;SDS011;65929;49.062;10.338;2023-08-31T02:25:13;6.88;;;3.83;;
76995;SDS011;65929;49.062;10.338;2023-08-31T02:26:15;5.35;;;4.07;;
76995;SDS011;65929;49.062;10.338;2023-08-31T02:27:16;7.40;;;3.83;;
76995;SDS011;65929;49.062;10.338;2023-08-31T02:28:17;6.88;;;3.85;;
76995;SDS011;65929;49.062;10.338;2023-08-31T02:29:19;7.00;;;3.63;;
76995;SDS011;65929;49.062;10.338;2023-08-31T02:30:20;4.95;;;3.47;;
76995;SDS011;65929;49.062;10.338;2023-08-31T02:31:21;6.18;;;3.53;;
76995;SDS011;65929;49.062;10.338;2023-08-31T02:32:22;5.15;;;3.42;;
76995;SDS011;65929;49.062;10.338;2023-08-31T02:33:23;5.20;;;3.65;;
76995;SDS011;65929;49.062;10.338;2023-08-31T02:34:24;5.93;;;3.45;;
76995;SDS011;65929;49.062;10.338;2023-08-31T02:35:25;5.70;;;3.58;;
76995;SDS011;65929;49.062;10.338;2023-08-31T02:36:26;6.53;;;4.00;;
76995;SDS011;65929;49.062;10.338;2023-08-31T02:37:26;5.97;;;3.20;;
76995;SDS011;65929;49.062;10.338;2023-08-31T02:38:27;7.20;;;3.67;;
76995;SDS011;65929;49.062;10.338;2023-08-31T02:39:28;5.90;;;3.50;;
76995;SDS011;65929;49.062;10.338;2023-08-31T02:40:30;5.05;;;3.75;;
76995;SDS011;65929;49.062;10.338;2023-08-31T02:41:32;5.97;;;3.78;;
76995;SDS011;65929;49.062;10.338;2023-08-31T02:42:33;6.30;;;3.20;;
76995;SDS011;65929;49.062;10.338;2023-08-31T02:43:34;4.45;;;3.22;;
76995;SDS011;65929;49.062;10.338;2023-08-31T02:44:35;5.22;;;3.42;;
76995;SDS011;65929;49.062;10.338;2023-08-31T02:45:35;6.00;;;3.80;;
76995;SDS011;65929;49.062;10.338;2023-08-31T02:46:36;6.40;;;4.07;;
76995;SDS011;65929;49.062;10.338;2023-08-31T02:47:37;6.70;;;3.58;;
76995;SDS011;65929;49.062;10.338;2023-08-31T02:48:38;9.27;;;3.78;;
76995;SDS011;65929;49.062;10.338;2023-08-31T02:49:39;6.45;;;3.85;;
76995;SDS011;65929;49.062;10.338;2023-08-31T02:50:40;6.35;;;3.85;;
76995;SDS011;65929;49.062;10.338;2023-08-31T02:51:41;5.38;;;3.17;;
76995;SDS011;65929;49.062;10.338;2023-08-31T02:52:41;6.82;;;3.53;;
76995;SDS011;65929;49.062;10.338;2023-08-31T02:53:42;5.93;;;3.60;;
76995;SDS011;65929;49.062;10.338;2023-08-31T02:54:43;5.20;;;3.65;;
76995;SDS011;65929;49.062;10.338;2023-08-31T02:55:44;4.70;;;3.38;;
76995;SDS011;65929;49.062;10.338;2023-08-31T02:56:47;5.00;;;3.20;;
76995;SDS011;65929;49.062;10.338;2023-08-31T02:57:47;6.00;;;3.42;;
76995;SDS011;65929;49.062;10.338;2023-08-31T02:58:48;5.40;;;3.67;;
76995;SDS011;65929;49.062;10.338;2023-08-31T02:59:49;5.65;;;3.20;;
76995;SDS011;65929;49.062;10.338;2023-08-31T03:00:51;6.90;;;3.80;;
76995;SDS011;65929;49.062;10.338;2023-08-31T03:01:53;7.88;;;4.00;;
76995;SDS011;65929;49.062;10.338;2023-08-31T03:02:54;8.43;;;3.65;;
76995;SDS011;65929;49.062;10.338;2023-08-31T03:03:55;5.55;;;3.35;;
76995;SDS011;65929;49.062;10.338;2023-08-31T03:04:56;6.40;;;3.35;;
76995;SDS011;65929;49.062;10.338;2023-08-31T03:05:57;4.47;;;3.13;;
76995;SDS011;65929;49.062;10.338;2023-08-31T03:06:58;5.63;;;3.30;;
76995;SDS011;65929;49.062;10.338;2023-08-31T03:07:59;7.13;;;3.35;;
76995;SDS011;65929;49.062;10.338;2023-08-31T03:08:59;7.70;;;3.90;;
76995;SDS011;65929;49.062;10.338;2023-08-31T03:10:02;5.25;;;3.08;;
76995;SDS011;65929;49.062;10.338;2023-08-31T03:11:04;5.68;;;3.00;;
76995;SDS011;65929;49.062;10.338;2023-08-31T03:12:07;6.40;;;3.63;;
76995;SDS011;65929;49.062;10.338;2023-08-31T03:13:08;8.10;;;3.80;;
76995;SDS011;65929;49.062;10.338;2023-08-31T03:14:09;6.65;;;3.47;;
76995;SDS011;65929;49.062;10.338;2023-08-31T03:15:10;5.10;;;3.30;;
76995;SDS011;65929;49.062;10.338;2023-08-31T03:16:10;7.55;;;3.47;;
76995;SDS011;65929;49.062;10.338;2023-08-31T03:17:11;6.57;;;3.75;;
76995;SDS011;65929;49.062;10.338;2023-08-31T03:18:12;6.65;;;3.58;;
76995;SDS011;65929;49.062;10.338;2023-08-31T03:19:13;6.57;;;3.47;;
76995;SDS011;65929;49.062;10.338;2023-08-31T03:20:14;5.55;;;3.53;;
76995;SDS011;65929;49.062;10.338;2023-08-31T03:21:15;7.22;;;3.65;;
76995;SDS011;65929;49.062;10.338;2023-08-31T03:22:16;5.88;;;3.90;;
76995;SDS011;65929;49.062;10.338;2023-08-31T03:23:17;7.00;;;3.80;;
76995;SDS011;65929;49.062;10.338;2023-08-31T03:24:18;5.47;;;3.40;;
76995;SDS011;65929;49.062;10.338;2023-08-31T03:25:19;6.57;;;3.70;;
76995;SDS011;65929;49.062;10.338;2023-08-31T03:26:19;5.93;;;3.88;;
76995;SDS011;65929;49.062;10.338;2023-08-31T03:27:22;7.30;;;4.13;;
76995;SDS011;65929;49.062;10.338;2023-08-31T03:28:23;9.50;;;3.95;;
76995;SDS011;65929;49.062;10.338;2023-08-31T03:29:23;5.97;;;3.60;;
76995;SDS011;65929;49.062;10.338;2023-08-31T03:30:25;7.65;;;3.80;;
76995;SDS011;65929;49.062;10.338;2023-08-31T03:31:25;4.97;;;3.35;;
76995;SDS011;65929;49.062;10.338;2023-08-31T03:32:26;7.38;;;3.58;;
76995;SDS011;65929;49.062;10.338;2023-08-31T03:33:27;6.95;;;3.58;;
76995;SDS011;65929;49.062;10.338;2023-08-31T03:34:29;8.23;;;4.22;;
76995;SDS011;65929;49.062;10.338;2023-08-31T03:35:31;4.85;;;3.58;;
76995;SDS011;65929;49.062;10.338;2023-08-31T03:36:32;7.80;;;3.67;;
76995;SDS011;65929;49.062;10.338;2023-08-31T03:37:33;11.07;;;4.13;;
76995;SDS011;65929;49.062;10.338;2023-08-31T03:38:34;7.55;;;3.78;;
76995;SDS011;65929;49.062;10.338;2023-08-31T03:39:37;8.05;;;4.03;;
76995;SDS011;65929;49.062;10.338;2023-08-31T03:40:40;8.90;;;4.68;;
76995;SDS011;65929;49.062;10.338;2023-08-31T03:41:41;6.30;;;3.60;;
76995;SDS011;65929;49.062;10.338;2023-08-31T03:42:43;5.75;;;3.38;;
76995;SDS011;65929;49.062;10.338;2023-08-31T03:43:44;6.53;;;3.60;;
76995;SDS011;65929;49.062;10.338;2023-08-31T03:44:45;6.75;;;3.80;;
76995;SDS011;65929;49.062;10.338;2023-08-31T03:45:46;7.82;;;3.67;;
76995;SDS011;65929;49.062;10.338;2023-08-31T03:46:47;8.07;;;3.72;;
76995;SDS011;65929;49.062;10.338;2023-08-31T03:47:48;7.72;;;4.07;;
76995;SDS011;65929;49.062;10.338;2023-08-31T03:48:49;6.50;;;3.53;;
76995;SDS011;65929;49.062;10.338;2023-08-31T03:49:50;6.13;;;3.83;;
76995;SDS011;65929;49.062;10.338;2023-08-31T03:50:50;7.55;;;4.40;;
76995;SDS011;65929;49.062;10.338;2023-08-31T03:51:52;7.22;;;4.05;;
76995;SDS011;65929;49.062;10.338;2023-08-31T03:52:53;6.07;;;4.22;;
76995;SDS011;65929;49.062;10.338;2023-08-31T03:53:54;7.22;;;4.03;;
76995;SDS011;65929;49.062;10.338;2023-08-31T03:54:56;7.07;;;4.32;;
76995;SDS011;65929;49.062;10.338;2023-08-31T03:55:57;6.85;;;3.70;;
76995;SDS011;65929;49.062;10.338;2023-08-31T03:56:58;13.82;;;4.50;;
76995;SDS011;65929;49.062;10.338;2023-08-31T03:58:01;6.68;;;3.90;;
76995;SDS011;65929;49.062;10.338;2023-08-31T03:59:02;7.40;;;4.07;;
76995;SDS011;65929;49.062;10.338;2023-08-31T04:00:06;7.57;;;4.28;;
76995;SDS011;65929;49.062;10.338;2023-08-31T04:01:12;8.00;;;3.70;;
76995;SDS011;65929;49.062;10.338;2023-08-31T04:02:14;9.15;;;4.10;;
76995;SDS011;65929;49.062;10.338;2023-08-31T04:03:15;8.07;;;3.65;;
76995;SDS011;65929;49.062;10.338;2023-08-31T04:04:16;6.53;;;3.63;;
76995;SDS011;65929;49.062;10.338;2023-08-31T04:05:17;6.70;;;3.65;;
76995;SDS011;65929;49.062;10.338;2023-08-31T04:06:18;6.07;;;3.78;;
76995;SDS011;65929;49.062;10.338;2023-08-31T04:07:18;6.57;;;3.72;;
76995;SDS011;65929;49.062;10.338;2023-08-31T04:08:19;7.72;;;4.30;;
76995;SDS011;65929;49.062;10.338;2023-08-31T04:09:20;6.75;;;4.20;;
76995;SDS011;65929;49.062;10.338;2023-08-31T04:10:22;7.65;;;4.55;;
76995;SDS011;65929;49.062;10.338;2023-08-31T04:11:24;6.35;;;3.88;;
76995;SDS011;65929;49.062;10.338;2023-08-31T04:12:26;7.60;;;4.60;;
76995;SDS011;65929;49.062;10.338;2023-08-31T04:13:30;7.28;;;4.00;;
76995;SDS011;65929;49.062;10.338;2023-08-31T04:14:31;6.85;;;4.80;;
76995;SDS011;65929;49.062;10.338;2023-08-31T04:15:32;8.50;;;4.35;;
76995;SDS011;65929;49.062;10.338;2023-08-31T04:16:34;7.80;;;4.55;;
76995;SDS011;65929;49.062;10.338;2023-08-31T04:17:35;8.32;;;4.15;;
76995;SDS011;65929;49.062;10.338;2023-08-31T04:18:36;7.68;;;4.40;;
76995;SDS011;65929;49.062;10.338;2023-08-31T04:19:37;9.60;;;4.38;;
76995;SDS011;65929;49.062;10.338;2023-08-31T04:20:38;7.80;;;3.90;;
76995;SDS011;65929;49.062;10.338;2023-08-31T04:21:39;7.35;;;4.22;;
76995;SDS011;65929;49.062;10.338;2023-08-31T04:22:40;7.63;;;4.47;;
76995;SDS011;65929;49.062;10.338;2023-08-31T04:23:41;7.65;;;4.32;;
76995;SDS011;65929;49.062;10.338;2023-08-31T04:24:42;7.65;;;4.43;;
76995;SDS011;65929;49.062;10.338;2023-08-31T04:25:43;8.13;;;4.30;;
76995;SDS011;65929;49.062;10.338;2023-08-31T04:26:44;8.52;;;4.32;;
76995;SDS011;65929;49.062;10.338;2023-08-31T04:27:45;8.95;;;4.22;;
76995;SDS011;65929;49.062;10.338;2023-08-31T04:28:47;6.30;;;3.78;;
76995;SDS011;65929;49.062;10.338;2023-08-31T04:29:48;6.70;;;4.13;;
76995;SDS011;65929;49.062;10.338;2023-08-31T04:30:49;8.57;;;4.70;;
76995;SDS011;65929;49.062;10.338;2023-08-31T04:31:50;7.05;;;4.05;;
76995;SDS011;65929;49.062;10.338;2023-08-31T04:32:51;8.52;;;4.80;;
76995;SDS011;65929;49.062;10.338;2023-08-31T04:33:52;9.10;;;4.75;;
76995;SDS011;65929;49.062;10.338;2023-08-31T04:34:55;7.25;;;4.30;;
76995;SDS011;65929;49.062;10.338;2023-08-31T04:35:56;6.43;;;4.00;;
76995;SDS011;65929;49.062;10.338;2023-08-31T04:36:57;8.30;;;4.05;;
76995;SDS011;65929;49.062;10.338;2023-08-31T04:37:58;8.35;;;4.00;;
76995;SDS011;65929;49.062;10.338;2023-08-31T04:38:58;6.90;;;3.97;;
76995;SDS011;65929;49.062;10.338;2023-08-31T04:39:59;7.88;;;4.25;;
76995;SDS011;65929;49.062;10.338;2023-08-31T04:41:01;8.57;;;4.15;;
76995;SDS011;65929;49.062;10.338;2023-08-31T04:42:02;6.80;;;4.45;;
76995;SDS011;65929;49.062;10.338;2023-08-31T04:43:03;7.40;;;4.50;;
76995;SDS011;65929;49.062;10.338;2023-08-31T04:44:06;10.48;;;4.25;;
76995;SDS011;65929;49.062;10.338;2023-08-31T04:45:07;7.07;;;4.05;;
76995;SDS011;65929;49.062;10.338;2023-08-31T04:46:08;6.95;;;3.70;;
76995;SDS011;65929;49.062;10.338;2023-08-31T04:47:10;8.82;;;4.20;;
76995;SDS011;65929;49.062;10.338;2023-08-31T04:48:11;6.55;;;3.58;;
76995;SDS011;65929;49.062;10.338;2023-08-31T04:49:12;8.50;;;4.20;;
76995;SDS011;65929;49.062;10.338;2023-08-31T04:50:13;8.02;;;4.30;;
76995;SDS011;65929;49.062;10.338;2023-08-31T04:51:29;8.15;;;4.53;;
76995;SDS011;65929;49.062;10.338;2023-08-31T04:52:32;9.32;;;4.57;;
76995;SDS011;65929;49.062;10.338;2023-08-31T04:53:33;7.70;;;4.13;;
76995;SDS011;65929;49.062;10.338;2023-08-31T04:54:34;5.70;;;3.35;;
76995;SDS011;65929;49.062;10.338;2023-08-31T04:55:35;7.05;;;4.13;;
76995;SDS011;65929;49.062;10.338;2023-08-31T04:56:36;7.70;;;4.60;;
76995;SDS011;65929;49.062;10.338;2023-08-31T04:57:37;6.10;;;4.03;;
76995;SDS011;65929;49.062;10.338;2023-08-31T04:58:38;7.40;;;4.20;;
76995;SDS011;65929;49.062;10.338;2023-08-31T04:59:40;6.03;;;3.63;;
76995;SDS011;65929;49.062;10.338;2023-08-31T05:00:41;8.32;;;4.05;;
76995;SDS011;65929;49.062;10.338;2023-08-31T05:01:44;9.38;;;3.92;;
76995;SDS011;65929;49.062;10.338;2023-08-31T05:02:45;9.55;;;4.22;;
76995;SDS011;65929;49.062;10.338;2023-08-31T05:03:45;5.60;;;3.80;;
76995;SDS011;65929;49.062;10.338;2023-08-31T05:04:47;7.75;;;4.25;;
76995;SDS011;65929;49.062;10.338;2023-08-31T05:05:48;9.00;;;4.35;;
76995;SDS011;65929;49.062;10.338;2023-08-31T05:06:49;7.57;;;3.72;;
76995;SDS011;65929;49.062;10.338;2023-08-31T05:07:50;8.50;;;3.97;;
76995;SDS011;65929;49.062;10.338;2023-08-31T05:08:51;9.23;;;3.40;;
76995;SDS011;65929;49.062;10.338;2023-08-31T05:09:52;8.73;;;3.90;;
76995;SDS011;65929;49.062;10.338;2023-08-31T05:10:53;6.28;;;3.88;;
76995;SDS011;65929;49.062;10.338;2023-08-31T05:11:53;7.72;;;4.28;;
76995;SDS011;65929;49.062;10.338;2023-08-31T05:12:54;5.40;;;3.60;;
76995;SDS011;65929;49.062;10.338;2023-08-31T05:13:55;7.85;;;3.65;;
76995;SDS011;65929;49.062;10.338;2023-08-31T05:14:57;6.05;;;3.60;;
76995;SDS011;65929;49.062;10.338;2023-08-31T05:15:59;6.63;;;3.80;;
76995;SDS011;65929;49.062;10.338;2023-08-31T05:17:00;6.07;;;3.67;;
76995;SDS011;65929;49.062;10.338;2023-08-31T05:18:00;7.63;;;4.53;;
76995;SDS011;65929;49.062;10.338;2023-08-31T05:19:01;7.68;;;4.20;;
76995;SDS011;65929;49.062;10.338;2023-08-31T05:20:03;6.15;;;3.72;;
76995;SDS011;65929;49.062;10.338;2023-08-31T05:21:05;5.53;;;3.75;;
76995;SDS011;65929;49.062;10.338;2023-08-31T05:22:06;10.57;;;4.03;;
76995;SDS011;65929;49.062;10.338;2023-08-31T05:23:07;6.70;;;3.58;;
76995;SDS011;65929;49.062;10.338;2023-08-31T05:24:08;7.22;;;4.15;;
76995;SDS011;65929;49.062;10.338;2023-08-31T05:25:09;7.97;;;3.97;;
76995;SDS011;65929;49.062;10.338;2023-08-31T05:26:10;8.07;;;3.67;;
76995;SDS011;65929;49.062;10.338;2023-08-31T05:27:11;7.30;;;3.63;;
76995;SDS011;65929;49.062;10.338;2023-08-31T05:28:12;6.40;;;3.50;;
76995;SDS011;65929;49.062;10.338;2023-08-31T05:29:13;6.07;;;3.63;;
76995;SDS011;65929;49.062;10.338;2023-08-31T05:30:15;8.80;;;3.83;;
76995;SDS011;65929;49.062;10.338;2023-08-31T05:31:17;9.40;;;3.85;;
76995;SDS011;65929;49.062;10.338;2023-08-31T05:32:18;7.00;;;3.50;;
76995;SDS011;65929;49.062;10.338;2023-08-31T05:33:18;6.65;;;3.13;;
76995;SDS011;65929;49.062;10.338;2023-08-31T05:34:20;6.03;;;3.55;;
76995;SDS011;65929;49.062;10.338;2023-08-31T05:35:23;8.02;;;3.78;;
76995;SDS011;65929;49.062;10.338;2023-08-31T05:36:24;6.43;;;3.88;;
76995;SDS011;65929;49.062;10.338;2023-08-31T05:37:25;6.45;;;3.42;;
76995;SDS011;65929;49.062;10.338;2023-08-31T05:38:26;5.65;;;3.35;;
76995;SDS011;65929;49.062;10.338;2023-08-31T05:39:26;7.22;;;3.00;;
76995;SDS011;65929;49.062;10.338;2023-08-31T05:40:27;7.93;;;4.20;;
76995;SDS011;65929;49.062;10.338;2023-08-31T05:41:28;4.95;;;3.30;;
76995;SDS011;65929;49.062;10.338;2023-08-31T05:42:29;5.43;;;3.50;;
76995;SDS011;65929;49.062;10.338;2023-08-31T05:43:30;5.50;;;2.88;;
76995;SDS011;65929;49.062;10.338;2023-08-31T05:44:31;5.57;;;3.50;;
76995;SDS011;65929;49.062;10.338;2023-08-31T05:45:33;8.18;;;3.58;;
76995;SDS011;65929;49.062;10.338;2023-08-31T05:46:34;6.35;;;4.18;;
76995;SDS011;65929;49.062;10.338;2023-08-31T05:47:35;7.35;;;3.70;;
76995;SDS011;65929;49.062;10.338;2023-08-31T05:48:36;6.65;;;3.33;;
76995;SDS011;65929;49.062;10.338;2023-08-31T05:49:37;5.13;;;3.20;;
76995;SDS011;65929;49.062;10.338;2023-08-31T05:50:38;4.80;;;3.40;;
76995;SDS011;65929;49.062;10.338;2023-08-31T05:51:39;6.55;;;3.38;;
76995;SDS011;65929;49.062;10.338;2023-08-31T05:52:40;5.63;;;3.63;;
76995;SDS011;65929;49.062;10.338;2023-08-31T05:53:44;10.43;;;3.20;;
76995;SDS011;65929;49.062;10.338;2023-08-31T05:54:45;4.13;;;2.80;;
76995;SDS011;65929;49.062;10.338;2023-08-31T05:55:45;4.75;;;3.20;;
76995;SDS011;65929;49.062;10.338;2023-08-31T05:56:47;6.00;;;3.20;;
76995;SDS011;65929;49.062;10.338;2023-08-31T05:57:48;5.78;;;3.40;;
76995;SDS011;65929;49.062;10.338;2023-08-31T05:58:49;6.10;;;3.60;;
76995;SDS011;65929;49.062;10.338;2023-08-31T05:59:50;6.88;;;4.13;;
76995;SDS011;65929;49.062;10.338;2023-08-31T06:00:52;4.40;;;3.10;;
76995;SDS011;65929;49.062;10.338;2023-08-31T06:01:53;7.25;;;3.67;;
76995;SDS011;65929;49.062;10.338;2023-08-31T06:02:54;4.45;;;2.90;;
76995;SDS011;65929;49.062;10.338;2023-08-31T06:03:55;5.15;;;2.90;;
76995;SDS011;65929;49.062;10.338;2023-08-31T06:04:56;4.97;;;3.08;;
76995;SDS011;65929;49.062;10.338;2023-08-31T06:05:57;6.07;;;3.40;;